Perdasdefogu, Italy

1:45 AM CEST on April 19, 2015 (GMT +0200)
LANUSEI | | Change Station
CLOSE
Current Station
Personal Weather Station
Location: Lanusei, SARDEGNA
Elevation: 1962 ft
Nearby Weather Stations
Active Advisory: Thunderstorms

Elev 1962 ft 39.88 °N, 9.54 °E | Updated 46 seconds ago

Clear
Clear
58.8 °F
Feels Like 58.8 °F
N
0.0
Wind Variable Wind from ESE
Gusts 2.2 mph

Today
High -- | Low -- °F
--% Chance of Precip.
Yesterday
High -- | Low -- °F
Precip. -- in
6:39 AM 8:03 PM
New Moon, 0% visible
Pressure 29.92 in
Visibility -9999.0 miles
Clouds
Dew Point 48 °F
Humidity 68%
Rainfall 0.00 in
Snow Depth Not available.
UV 0.0 out of 12
Pollen Not available.
Air Quality Not available.
Flu Activity Not available.
METAR LIEC 182255Z 07006KT CAVOK 15/13 Q1013 RMK BKN FEW090 BKN200 QUK / QUL / VIS MAR 18 KM VIS MIN 9999

More Conditions Fewer Conditions

Pressure 29.92 in
Visibility -9999.0 miles
Clouds
Dew Point 48 °F
Humidity 68%
Rainfall 0.00 in
Snow Depth Not available.
UV 0.0 out of 12
Pollen Not available.
Air Quality Not available.
Flu Activity Not available.
METAR LIEC 182255Z 07006KT CAVOK 15/13 Q1013 RMK BKN FEW090 BKN200 QUK / QUL / VIS MAR 18 KM VIS MIN 9999

More Conditions Fewer Conditions

10-Day Weather Forecast

Almanac

Astronomy

Apr. 19, 2015 Rise Set
Actual Time
Civil Twilight
Nautical Twilight
Astronomical Twilight
Moon
Length of Visible Light
Length of Day
Tomorrow will be .
, % of the Moon is Illuminated

Today's Extremes

Country Highs Country Lows

Community

WunderPhotos

Upload Photos

1,814,580 photos uploaded!

WunderBlogs® & News

Nearby

Air Quality

  Air Quality AQ Index Pollutant
Not available.

Snow Depth

Station Depth Elevation

Earthquake Activity

City Distance Mag. Time & Date
Minimum magnitude displayed is 2.5.

Coastal Water Temperatures

Place Temperature

Stations

Nearby Weather Stations

Station Location Temp. Windchill Dew Point Humidity Wind Precip. Elev Updated Type